Time;durP1;ratioP1;P1;durP2;ratioP2;P2;SDS_P1;SDS_P2;PMS_P1;PMS_P2;Temp;Humidity;BMP_temperature;BMP_pressure;BME280_temperature;BME280_humidity;BME280_pressure;Samples;Min_cycle;Max_cycle;Signal;HPM_P1;HPM_P2
2023/05/27 00:00:05;;;;;;;22.27;5.43;;;11.50;99.90;;;;;;5039725;28;20492;-61
2023/05/27 00:02:32;;;;;;;33.13;5.70;;;11.40;99.90;;;;;;5011327;28;20084;-60
2023/05/27 00:04:59;;;;;;;27.58;5.47;;;11.40;99.90;;;;;;5040552;28;20056;-61
2023/05/27 00:07:26;;;;;;;28.80;4.97;;;11.40;99.90;;;;;;5032068;28;20049;-60
2023/05/27 00:09:53;;;;;;;25.48;4.90;;;11.40;99.90;;;;;;5033019;28;20512;-61
2023/05/27 00:12:20;;;;;;;28.55;5.18;;;11.40;99.90;;;;;;4691501;28;10000647;-60
2023/05/27 00:14:47;;;;;;;27.40;4.75;;;11.40;99.90;;;;;;5040483;28;20587;-60
2023/05/27 00:17:13;;;;;;;32.42;8.38;;;11.40;99.90;;;;;;5032898;28;20614;-60
2023/05/27 00:19:42;;;;;;;19.63;4.63;;;11.40;99.90;;;;;;5035716;28;20100;-61
2023/05/27 00:22:08;;;;;;;27.08;5.47;;;11.50;99.90;;;;;;5025833;28;20053;-60
2023/05/27 00:24:37;;;;;;;25.80;6.22;;;11.40;99.90;;;;;;5044176;28;20553;-61
2023/05/27 00:27:05;;;;;;;23.20;6.75;;;11.40;99.90;;;;;;5043085;28;20053;-60
2023/05/27 00:29:31;;;;;;;23.23;5.38;;;11.40;99.90;;;;;;5042774;28;20095;-61
2023/05/27 00:32:00;;;;;;;19.85;4.28;;;11.30;99.90;;;;;;5038087;28;20045;-61
2023/05/27 00:34:27;;;;;;;17.73;4.30;;;11.30;99.90;;;;;;5042384;28;20049;-62
2023/05/27 00:36:54;;;;;;;26.83;5.15;;;11.30;99.90;;;;;;5042061;28;20132;-61
2023/05/27 00:39:21;;;;;;;18.40;3.95;;;11.30;99.90;;;;;;5040933;28;20437;-60
2023/05/27 00:41:48;;;;;;;22.42;5.03;;;11.30;99.90;;;;;;5041868;28;20123;-61
2023/05/27 00:44:15;;;;;;;19.35;4.30;;;11.30;99.90;;;;;;5040525;28;20049;-60
2023/05/27 00:46:43;;;;;;;23.65;5.10;;;11.30;99.90;;;;;;5043169;28;20053;-60
2023/05/27 00:49:10;;;;;;;21.90;4.63;;;11.30;99.90;;;;;;5041671;28;20121;-61
2023/05/27 00:51:36;;;;;;;26.25;5.38;;;11.20;99.90;;;;;;5046540;28;20415;-61
2023/05/27 00:54:03;;;;;;;28.85;5.78;;;11.20;99.90;;;;;;5021906;28;20107;-60
2023/05/27 00:56:30;;;;;;;20.83;4.70;;;11.20;99.90;;;;;;5024393;28;20478;-61
2023/05/27 00:58:57;;;;;;;29.40;4.43;;;11.20;99.90;;;;;;5042512;28;20130;-62
2023/05/27 01:01:25;;;;;;;17.83;4.55;;;11.20;99.90;;;;;;5044788;28;20458;-60
2023/05/27 01:03:52;;;;;;;31.55;5.03;;;11.20;99.90;;;;;;5036565;28;20059;-61
2023/05/27 01:06:28;;;;;;;21.85;5.25;;;11.10;99.90;;;;;;5017038;28;20083;-61
2023/05/27 01:09:06;;;;;;;17.83;4.65;;;11.10;99.90;;;;;;5040872;28;20140;-60
2023/05/27 01:11:37;;;;;;;20.38;4.38;;;11.10;99.90;;;;;;5027156;28;20045;-66
2023/05/27 01:14:10;;;;;;;23.67;4.93;;;11.10;99.90;;;;;;5039782;28;20095;-60
2023/05/27 01:16:40;;;;;;;22.20;6.38;;;11.00;99.90;;;;;;5018002;28;20061;-60
2023/05/27 01:19:09;;;;;;;25.40;4.78;;;11.00;99.90;;;;;;5021015;28;20144;-59
2023/05/27 01:21:36;;;;;;;21.83;4.47;;;11.00;99.90;;;;;;5022045;28;20475;-61
2023/05/27 01:24:04;;;;;;;40.88;6.82;;;11.00;99.90;;;;;;5018979;28;20396;-60
2023/05/27 01:26:31;;;;;;;21.58;5.05;;;11.00;99.90;;;;;;5041893;28;20053;-60
2023/05/27 01:28:58;;;;;;;21.40;5.82;;;10.90;99.90;;;;;;5044617;28;20048;-60
2023/05/27 01:31:41;;;;;;;20.40;4.57;;;10.90;99.90;;;;;;5019977;28;20539;-60
2023/05/27 01:34:09;;;;;;;36.00;5.33;;;10.90;99.90;;;;;;5027880;28;20070;-61
2023/05/27 01:36:56;;;;;;;33.80;5.70;;;10.80;99.90;;;;;;5021647;28;20300;-61
2023/05/27 01:39:23;;;;;;;21.98;6.20;;;10.80;99.90;;;;;;5015236;28;20053;-61
2023/05/27 01:41:50;;;;;;;21.17;4.95;;;10.70;99.90;;;;;;5040051;28;20076;-61
2023/05/27 01:44:17;;;;;;;21.20;4.80;;;10.70;99.90;;;;;;5027578;28;20049;-60
2023/05/27 01:46:44;;;;;;;17.58;4.13;;;10.70;99.90;;;;;;5018857;28;20046;-61
2023/05/27 01:49:11;;;;;;;28.70;6.40;;;10.70;99.90;;;;;;5030010;28;20045;-61
2023/05/27 01:51:38;;;;;;;25.73;4.90;;;10.80;99.90;;;;;;5039102;28;20564;-61
2023/05/27 01:54:05;;;;;;;36.17;6.43;;;10.70;99.90;;;;;;5045755;28;20500;-60
2023/05/27 01:56:32;;;;;;;28.45;6.28;;;10.70;99.90;;;;;;5041082;28;20099;-60
2023/05/27 01:58:58;;;;;;;24.30;4.85;;;10.70;99.90;;;;;;5034267;28;20049;-60
2023/05/27 02:01:27;;;;;;;23.15;5.47;;;10.70;99.90;;;;;;5039111;28;20125;-61
2023/05/27 02:03:55;;;;;;;23.02;6.53;;;10.70;99.90;;;;;;5033045;28;20115;-61
2023/05/27 02:06:22;;;;;;;26.35;5.07;;;10.60;99.90;;;;;;5045068;28;20049;-61
2023/05/27 02:08:49;;;;;;;26.17;4.60;;;10.60;99.90;;;;;;5036324;28;20052;-61
2023/05/27 02:11:16;;;;;;;33.08;6.45;;;10.60;99.90;;;;;;5031221;28;20052;-60
2023/05/27 02:13:43;;;;;;;29.70;4.85;;;10.60;99.90;;;;;;5024253;28;20080;-59
2023/05/27 02:16:12;;;;;;;30.35;6.35;;;10.60;99.90;;;;;;5035853;28;20072;-60
2023/05/27 02:18:40;;;;;;;25.30;8.98;;;10.50;99.90;;;;;;5041925;28;20140;-60
2023/05/27 02:21:07;;;;;;;26.15;5.13;;;10.50;99.90;;;;;;5043004;28;20098;-60
2023/05/27 02:23:34;;;;;;;28.45;6.65;;;10.50;99.90;;;;;;5035914;28;20139;-60
2023/05/27 02:26:01;;;;;;;19.38;5.30;;;10.50;99.90;;;;;;5035575;28;20064;-60
2023/05/27 02:28:27;;;;;;;36.03;7.35;;;10.40;99.90;;;;;;5040016;28;20489;-60
2023/05/27 02:30:54;;;;;;;30.98;6.75;;;10.40;99.90;;;;;;5017796;28;20049;-60
2023/05/27 02:33:21;;;;;;;28.25;6.40;;;10.40;99.90;;;;;;5037586;28;20110;-60
2023/05/27 02:35:48;;;;;;;20.85;5.18;;;10.40;99.90;;;;;;5038234;28;20060;-60
2023/05/27 02:38:15;;;;;;;27.10;5.35;;;10.40;99.90;;;;;;5038065;28;20713;-60
2023/05/27 02:40:42;;;;;;;26.20;5.25;;;10.40;99.90;;;;;;5035236;28;20048;-61
2023/05/27 02:43:09;;;;;;;27.33;5.03;;;10.40;99.90;;;;;;5039575;28;20437;-60
2023/05/27 02:45:36;;;;;;;25.00;6.00;;;10.40;99.90;;;;;;5050400;28;20045;-60
2023/05/27 02:48:03;;;;;;;20.17;5.55;;;10.40;99.90;;;;;;5053568;28;20130;-60
2023/05/27 02:50:30;;;;;;;25.55;6.28;;;10.40;99.90;;;;;;5033940;28;20084;-60
2023/05/27 02:52:57;;;;;;;19.77;4.95;;;10.40;99.90;;;;;;5043798;28;20045;-60
2023/05/27 02:55:24;;;;;;;20.95;4.85;;;10.30;99.90;;;;;;5039728;28;20075;-60
2023/05/27 02:57:51;;;;;;;30.75;5.75;;;10.30;99.90;;;;;;5013052;28;20045;-60
2023/05/27 03:00:17;;;;;;;31.75;6.53;;;10.30;99.90;;;;;;5038332;28;20099;-62
2023/05/27 03:02:44;;;;;;;26.80;6.75;;;10.30;99.90;;;;;;5044301;28;20064;-59
2023/05/27 03:05:11;;;;;;;22.70;5.40;;;10.30;99.90;;;;;;5029179;28;20081;-60
2023/05/27 03:07:38;;;;;;;22.17;4.97;;;10.30;99.90;;;;;;5029492;28;20053;-60
2023/05/27 03:10:05;;;;;;;28.40;5.63;;;10.30;99.90;;;;;;5038313;28;20077;-60
2023/05/27 03:12:32;;;;;;;25.30;4.80;;;10.30;99.90;;;;;;5040846;28;20056;-60
2023/05/27 03:14:59;;;;;;;22.90;5.82;;;10.30;99.90;;;;;;5037089;28;20041;-60
2023/05/27 03:17:26;;;;;;;23.17;5.13;;;10.30;99.90;;;;;;5037687;28;20057;-61
2023/05/27 03:19:53;;;;;;;27.02;5.03;;;10.20;99.90;;;;;;5035937;28;20095;-60
2023/05/27 03:22:20;;;;;;;22.30;5.55;;;10.20;99.90;;;;;;5019054;28;20048;-60
2023/05/27 03:24:47;;;;;;;23.55;5.90;;;10.20;99.90;;;;;;5042200;28;20045;-60
2023/05/27 03:27:13;;;;;;;12.50;5.25;;;10.10;99.90;;;;;;5039265;28;20045;-60
2023/05/27 03:29:41;;;;;;;25.38;6.07;;;10.10;99.90;;;;;;5030662;28;20045;-60
2023/05/27 03:32:08;;;;;;;22.42;5.72;;;10.20;99.90;;;;;;5040051;28;20040;-59
2023/05/27 03:34:35;;;;;;;25.10;4.38;;;10.10;99.90;;;;;;5038303;28;20503;-61
2023/05/27 03:37:02;;;;;;;23.77;6.60;;;10.20;99.90;;;;;;5033190;28;20634;-59
2023/05/27 03:39:28;;;;;;;26.13;6.13;;;10.20;99.90;;;;;;5045260;28;20045;-59
2023/05/27 03:41:55;;;;;;;22.30;5.30;;;10.20;99.90;;;;;;5043212;28;20044;-59
2023/05/27 03:44:22;;;;;;;22.90;5.60;;;10.20;99.90;;;;;;5013524;28;20049;-60
2023/05/27 03:46:49;;;;;;;31.35;6.25;;;10.20;99.90;;;;;;5031805;28;20072;-60
2023/05/27 03:49:16;;;;;;;27.92;6.45;;;10.20;99.90;;;;;;5041468;28;20500;-60
2023/05/27 03:51:43;;;;;;;30.63;5.95;;;10.20;99.90;;;;;;5041344;28;20486;-60
2023/05/27 03:54:10;;;;;;;32.63;6.18;;;10.20;99.90;;;;;;5033129;28;20467;-61
2023/05/27 03:56:37;;;;;;;32.83;5.70;;;10.30;99.90;;;;;;5039337;28;20083;-61
2023/05/27 03:59:03;;;;;;;20.23;5.85;;;10.30;99.90;;;;;;5034642;28;20052;-61
2023/05/27 04:01:30;;;;;;;21.48;5.05;;;10.30;99.90;;;;;;5035364;28;20037;-61
2023/05/27 04:03:57;;;;;;;19.88;6.03;;;10.30;99.90;;;;;;5044682;28;20072;-60
2023/05/27 04:06:24;;;;;;;20.27;6.10;;;10.20;99.90;;;;;;5046016;28;20045;-60
2023/05/27 04:08:51;;;;;;;27.83;5.68;;;10.20;99.90;;;;;;5040542;28;20077;-60
2023/05/27 04:11:18;;;;;;;32.03;6.32;;;10.30;99.90;;;;;;5043713;28;20053;-61
2023/05/27 04:13:46;;;;;;;24.85;5.88;;;10.30;99.90;;;;;;5042514;28;20780;-59
2023/05/27 04:16:13;;;;;;;21.98;6.25;;;10.30;99.90;;;;;;5038581;28;20455;-60
2023/05/27 04:18:40;;;;;;;22.65;5.80;;;10.20;99.90;;;;;;5023120;28;20060;-60
2023/05/27 04:21:08;;;;;;;23.15;6.40;;;10.20;99.90;;;;;;5032702;28;20046;-60
2023/05/27 04:23:35;;;;;;;30.48;7.53;;;10.20;99.90;;;;;;5036994;28;20503;-60
2023/05/27 04:26:02;;;;;;;26.17;6.63;;;10.20;99.90;;;;;;5041237;28;20044;-61
2023/05/27 04:28:29;;;;;;;23.27;5.63;;;10.20;99.90;;;;;;5047493;28;20056;-60
2023/05/27 04:30:55;;;;;;;22.63;6.40;;;10.20;99.90;;;;;;5041616;28;20041;-60
2023/05/27 04:33:22;;;;;;;28.10;6.40;;;10.20;99.90;;;;;;5045991;28;20045;-60
2023/05/27 04:35:53;;;;;;;28.48;6.53;;;10.20;99.90;;;;;;5044248;28;20098;-60
2023/05/27 04:38:20;;;;;;;27.17;5.25;;;10.10;99.90;;;;;;5036245;28;20057;-60
2023/05/27 04:40:52;;;;;;;20.77;5.15;;;10.20;99.90;;;;;;5036473;28;20068;-60
2023/05/27 04:43:19;;;;;;;24.15;5.60;;;10.20;99.90;;;;;;5026964;28;20051;-60
2023/05/27 04:45:46;;;;;;;29.00;5.75;;;10.30;99.90;;;;;;5047052;28;20106;-60
2023/05/27 04:48:15;;;;;;;27.50;6.03;;;10.40;99.90;;;;;;5038479;28;20061;-60
2023/05/27 04:50:42;;;;;;;27.60;6.50;;;10.40;99.90;;;;;;5032839;28;20046;-60
2023/05/27 04:53:08;;;;;;;22.10;5.30;;;10.50;99.90;;;;;;5040611;28;20550;-60
2023/05/27 04:55:36;;;;;;;25.25;4.50;;;10.60;99.90;;;;;;5049586;28;20118;-60
2023/05/27 04:58:04;;;;;;;31.75;5.82;;;10.60;99.90;;;;;;5039929;28;20056;-62
2023/05/27 05:00:49;;;;;;;16.50;4.97;;;10.70;99.90;;;;;;5024218;28;20060;-62
2023/05/27 05:03:21;;;;;;;20.55;6.15;;;10.70;99.90;;;;;;5039687;28;20053;-60
2023/05/27 05:05:52;;;;;;;31.95;5.30;;;10.80;99.90;;;;;;5049124;28;20175;-61
2023/05/27 05:08:19;;;;;;;29.80;5.38;;;10.80;99.90;;;;;;5040596;28;20057;-61
2023/05/27 05:10:47;;;;;;;25.73;5.97;;;10.90;99.90;;;;;;5040793;28;20103;-60
2023/05/27 05:13:14;;;;;;;23.80;6.22;;;10.90;99.90;;;;;;5039091;28;20084;-60
2023/05/27 05:15:43;;;;;;;22.13;5.38;;;11.00;99.90;;;;;;5043158;28;20076;-60
2023/05/27 05:18:11;;;;;;;25.63;6.43;;;11.10;99.90;;;;;;5025113;28;20385;-61
2023/05/27 05:20:37;;;;;;;19.33;5.97;;;11.10;99.90;;;;;;5038354;28;20046;-60
2023/05/27 05:23:06;;;;;;;25.55;5.97;;;11.10;99.90;;;;;;5035221;28;20118;-61
2023/05/27 05:25:37;;;;;;;26.35;5.28;;;11.10;99.90;;;;;;5040046;28;20049;-61
2023/05/27 05:28:05;;;;;;;31.48;5.85;;;11.10;99.90;;;;;;5046553;28;20071;-61
2023/05/27 05:30:32;;;;;;;27.38;5.82;;;11.20;99.90;;;;;;5022440;28;20499;-62
2023/05/27 05:32:59;;;;;;;23.25;4.72;;;11.30;99.90;;;;;;5043822;28;20041;-62
2023/05/27 05:35:26;;;;;;;27.08;5.35;;;11.30;99.90;;;;;;5038719;28;20048;-61
2023/05/27 05:37:53;;;;;;;25.10;5.15;;;11.40;99.90;;;;;;5033818;28;20048;-61
2023/05/27 05:40:21;;;;;;;23.02;5.03;;;11.40;99.90;;;;;;5039912;28;20071;-61
2023/05/27 05:42:48;;;;;;;28.30;6.95;;;11.40;99.90;;;;;;5043353;28;20052;-60
2023/05/27 05:45:15;;;;;;;33.47;5.00;;;11.50;99.90;;;;;;5038705;28;20058;-60
2023/05/27 05:47:42;;;;;;;19.92;4.80;;;11.50;99.90;;;;;;5042809;28;20045;-61
2023/05/27 05:50:09;;;;;;;30.63;5.15;;;11.40;99.90;;;;;;5038574;28;20048;-60
2023/05/27 05:52:36;;;;;;;18.90;6.28;;;11.50;99.90;;;;;;5037805;28;20357;-60
2023/05/27 05:55:03;;;;;;;33.33;5.10;;;11.60;99.90;;;;;;5039395;28;20088;-61
2023/05/27 05:57:31;;;;;;;23.85;5.78;;;11.60;99.90;;;;;;5038026;28;20411;-60
2023/05/27 06:00:01;;;;;;;22.05;4.88;;;11.70;99.90;;;;;;5038399;28;20056;-60
2023/05/27 06:02:28;;;;;;;20.08;4.50;;;11.80;99.90;;;;;;5040160;28;20077;-60
2023/05/27 06:04:55;;;;;;;30.30;5.65;;;11.80;99.90;;;;;;5037557;28;20053;-60
2023/05/27 06:07:22;;;;;;;36.05;8.40;;;11.90;99.90;;;;;;5040846;28;20068;-60
2023/05/27 06:09:49;;;;;;;25.00;6.18;;;12.00;99.90;;;;;;5035654;28;20499;-60
2023/05/27 06:12:16;;;;;;;28.83;6.35;;;12.10;99.90;;;;;;5035211;28;20045;-59
2023/05/27 06:14:42;;;;;;;21.13;4.78;;;12.10;99.90;;;;;;5043571;28;20133;-60
2023/05/27 06:17:09;;;;;;;26.67;5.88;;;12.20;99.90;;;;;;5023840;28;20045;-60
2023/05/27 06:19:36;;;;;;;19.35;4.10;;;12.30;99.90;;;;;;5031144;28;20134;-60
2023/05/27 06:22:04;;;;;;;20.65;4.90;;;12.40;99.90;;;;;;5036223;28;20091;-60
2023/05/27 06:24:32;;;;;;;18.63;4.50;;;12.50;99.90;;;;;;5045165;28;20502;-60
2023/05/27 06:26:58;;;;;;;26.73;4.70;;;12.50;99.90;;;;;;5020325;28;20049;-60
2023/05/27 06:29:25;;;;;;;25.33;4.55;;;12.60;99.90;;;;;;5015740;28;20053;-61
2023/05/27 06:31:52;;;;;;;23.27;4.38;;;12.70;99.90;;;;;;5036174;28;20087;-60
2023/05/27 06:34:19;;;;;;;19.52;4.32;;;12.70;99.90;;;;;;5033982;28;20142;-60
2023/05/27 06:36:48;;;;;;;22.63;4.88;;;12.70;99.90;;;;;;5035401;28;20052;-62
2023/05/27 06:39:16;;;;;;;16.67;4.85;;;12.80;99.90;;;;;;5039790;28;20510;-61
2023/05/27 06:41:42;;;;;;;24.23;4.15;;;12.80;99.90;;;;;;5041560;28;20081;-61
2023/05/27 06:44:09;;;;;;;19.30;4.35;;;12.80;99.90;;;;;;5037186;28;20049;-61
2023/05/27 06:46:36;;;;;;;39.40;6.60;;;12.90;99.90;;;;;;5039087;28;20049;-61
2023/05/27 06:49:03;;;;;;;27.38;5.20;;;12.90;99.90;;;;;;5039382;28;20049;-61
2023/05/27 06:51:30;;;;;;;19.98;5.35;;;12.90;99.90;;;;;;5030494;28;20041;-61
2023/05/27 06:53:57;;;;;;;24.63;5.25;;;13.00;99.90;;;;;;5036367;28;20045;-61
2023/05/27 06:56:24;;;;;;;30.15;5.63;;;13.10;99.90;;;;;;5043704;28;20041;-61
2023/05/27 06:58:51;;;;;;;33.30;5.07;;;13.20;99.90;;;;;;5040750;28;20103;-61
2023/05/27 07:01:18;;;;;;;19.73;4.68;;;13.20;99.90;;;;;;5032673;28;20049;-61
2023/05/27 07:03:45;;;;;;;24.92;7.93;;;13.30;99.90;;;;;;5030778;28;20408;-61
2023/05/27 07:06:11;;;;;;;26.67;5.32;;;13.40;99.90;;;;;;5044104;28;20140;-61
2023/05/27 07:08:38;;;;;;;25.10;4.95;;;13.50;99.90;;;;;;5034110;28;20049;-60
2023/05/27 07:11:05;;;;;;;21.42;4.82;;;13.60;99.90;;;;;;5013094;28;20115;-60
2023/05/27 07:13:32;;;;;;;19.25;4.68;;;13.50;99.90;;;;;;5042243;28;20060;-60
2023/05/27 07:15:58;;;;;;;25.40;5.40;;;13.50;99.90;;;;;;5034304;28;20071;-61
2023/05/27 07:18:25;;;;;;;31.80;5.70;;;13.50;99.90;;;;;;5034853;28;20071;-61
2023/05/27 07:20:52;;;;;;;18.77;5.10;;;13.60;99.90;;;;;;5038083;28;20594;-62
2023/05/27 07:23:19;;;;;;;25.13;4.60;;;13.80;99.90;;;;;;5038320;28;20128;-61
2023/05/27 07:25:46;;;;;;;23.25;5.22;;;13.80;99.90;;;;;;5035877;28;20041;-61
2023/05/27 07:28:13;;;;;;;21.35;5.05;;;13.70;99.90;;;;;;5036387;28;20048;-61
2023/05/27 07:30:40;;;;;;;19.58;4.68;;;13.80;99.90;;;;;;5035428;28;20041;-61
2023/05/27 07:33:06;;;;;;;23.25;5.53;;;13.90;99.90;;;;;;5033893;28;20057;-61
2023/05/27 07:35:33;;;;;;;29.52;5.05;;;14.00;99.90;;;;;;5018495;28;20151;-61
2023/05/27 07:38:02;;;;;;;25.30;5.60;;;14.00;99.90;;;;;;5035338;28;20123;-61
2023/05/27 07:40:29;;;;;;;24.00;6.18;;;14.00;99.90;;;;;;5037664;28;20388;-61
2023/05/27 07:42:56;;;;;;;17.90;5.32;;;14.10;99.90;;;;;;5035245;28;20491;-62
2023/05/27 07:45:23;;;;;;;25.70;5.55;;;14.00;99.90;;;;;;5041591;28;20057;-60
2023/05/27 07:47:49;;;;;;;21.90;5.47;;;14.00;99.90;;;;;;5042370;28;20464;-61
2023/05/27 07:50:16;;;;;;;31.02;6.15;;;14.10;99.90;;;;;;5032137;28;20057;-61
2023/05/27 07:52:43;;;;;;;27.42;5.90;;;14.20;99.90;;;;;;5032753;28;20068;-61
2023/05/27 07:55:10;;;;;;;22.80;6.80;;;14.30;99.90;;;;;;5042461;28;20077;-61
2023/05/27 07:57:37;;;;;;;19.95;6.15;;;14.30;99.90;;;;;;5042868;28;20393;-60
2023/05/27 08:00:06;;;;;;;22.80;5.82;;;14.40;99.90;;;;;;4687412;28;9999773;-61
2023/05/27 08:02:33;;;;;;;25.13;5.18;;;14.50;99.90;;;;;;5023151;28;20053;-62
2023/05/27 08:05:00;;;;;;;20.88;5.45;;;14.60;99.90;;;;;;5035497;28;20069;-61
2023/05/27 08:07:26;;;;;;;24.00;4.93;;;14.60;99.90;;;;;;5028694;28;20045;-62
2023/05/27 08:09:53;;;;;;;22.25;5.25;;;14.70;99.90;;;;;;5028739;28;20054;-62
2023/05/27 08:12:20;;;;;;;22.42;6.78;;;14.80;99.90;;;;;;5042373;28;20492;-62
2023/05/27 08:14:48;;;;;;;21.85;5.03;;;14.80;99.90;;;;;;5037579;28;20080;-61
2023/05/27 08:17:15;;;;;;;20.92;6.30;;;14.90;99.90;;;;;;5035652;28;20052;-62
2023/05/27 08:19:42;;;;;;;22.42;5.45;;;14.90;99.90;;;;;;5020899;28;20132;-60
2023/05/27 08:22:09;;;;;;;19.80;4.97;;;15.00;99.90;;;;;;5041125;28;20045;-60
2023/05/27 08:24:36;;;;;;;37.25;6.43;;;15.10;99.90;;;;;;5035912;28;20088;-61
2023/05/27 08:27:05;;;;;;;20.70;5.68;;;15.20;99.90;;;;;;5042111;28;20045;-61
2023/05/27 08:29:32;;;;;;;21.80;5.18;;;15.30;99.90;;;;;;5042136;28;20045;-61
2023/05/27 08:31:59;;;;;;;33.70;9.13;;;15.20;99.90;;;;;;5035361;28;20447;-61
2023/05/27 08:34:27;;;;;;;22.23;5.47;;;15.10;99.90;;;;;;5010760;28;20045;-61
2023/05/27 08:36:54;;;;;;;21.73;5.57;;;15.20;99.90;;;;;;5034977;28;20063;-61
2023/05/27 08:39:21;;;;;;;28.92;5.28;;;15.10;99.90;;;;;;5027154;28;20049;-61
2023/05/27 08:41:48;;;;;;;18.08;4.95;;;15.00;99.90;;;;;;5033136;28;20146;-61
2023/05/27 08:44:15;;;;;;;23.73;7.28;;;15.00;99.90;;;;;;5015973;28;20049;-60
2023/05/27 08:46:46;;;;;;;23.55;10.27;;;15.10;99.90;;;;;;5039821;28;20088;-61
2023/05/27 08:49:13;;;;;;;27.67;6.80;;;15.00;99.90;;;;;;5024844;28;20050;-60
2023/05/27 08:51:40;;;;;;;19.08;5.70;;;15.00;99.90;;;;;;5036152;28;20049;-61
2023/05/27 08:54:10;;;;;;;21.15;6.55;;;15.00;99.90;;;;;;5014469;28;20063;-62
2023/05/27 08:56:37;;;;;;;24.48;7.82;;;15.10;99.90;;;;;;5033845;28;20045;-62
2023/05/27 08:59:04;;;;;;;25.95;8.02;;;15.10;99.90;;;;;;5021096;28;20080;-61
2023/05/27 09:01:31;;;;;;;27.67;8.32;;;15.10;99.90;;;;;;5039383;28;20045;-61
2023/05/27 09:03:58;;;;;;;30.05;10.35;;;15.20;99.90;;;;;;5018737;28;20144;-62
2023/05/27 09:06:25;;;;;;;37.42;9.95;;;15.30;99.90;;;;;;5032873;28;20473;-60
2023/05/27 09:08:52;;;;;;;30.73;11.10;;;15.40;99.90;;;;;;5038412;28;20053;-61
2023/05/27 09:11:23;;;;;;;29.27;12.70;;;15.60;99.90;;;;;;5035927;28;20102;-61
2023/05/27 09:13:50;;;;;;;35.67;14.57;;;15.70;99.90;;;;;;5017502;28;20053;-61
2023/05/27 09:16:20;;;;;;;40.13;16.08;;;15.80;99.90;;;;;;5036784;28;20053;-61
2023/05/27 09:18:48;;;;;;;37.80;17.08;;;15.90;99.90;;;;;;5040515;28;20416;-61
2023/05/27 09:21:15;;;;;;;35.58;15.98;;;16.00;99.90;;;;;;5033989;28;20041;-61
2023/05/27 09:23:41;;;;;;;30.17;14.65;;;16.00;99.90;;;;;;5015927;28;20045;-60
2023/05/27 09:26:09;;;;;;;31.13;12.82;;;16.00;99.90;;;;;;5041347;28;20152;-62
2023/05/27 09:28:37;;;;;;;28.50;11.55;;;16.00;99.90;;;;;;5040093;28;20053;-62
2023/05/27 09:31:05;;;;;;;29.27;13.27;;;16.20;99.90;;;;;;5029629;28;20053;-61
2023/05/27 09:33:33;;;;;;;42.45;13.15;;;16.20;99.90;;;;;;5021934;28;20094;-62
2023/05/27 09:36:01;;;;;;;34.28;14.00;;;16.40;99.90;;;;;;5031920;28;20508;-60
2023/05/27 09:38:31;;;;;;;34.00;13.63;;;16.40;99.90;;;;;;5018044;28;20650;-61
2023/05/27 09:40:58;;;;;;;29.00;14.25;;;16.40;99.90;;;;;;5041807;28;20492;-62
2023/05/27 09:43:26;;;;;;;34.92;13.63;;;16.40;99.90;;;;;;5031455;28;20167;-63
2023/05/27 09:46:01;;;;;;;27.30;12.20;;;16.50;99.90;;;;;;5039857;28;20496;-61
2023/05/27 09:48:30;;;;;;;29.20;11.75;;;16.60;99.90;;;;;;5024285;28;20098;-60
2023/05/27 09:50:58;;;;;;;28.98;10.07;;;16.70;99.90;;;;;;5019486;28;20053;-61
2023/05/27 09:53:26;;;;;;;29.50;11.70;;;16.60;99.90;;;;;;5037811;28;20048;-61
2023/05/27 09:55:53;;;;;;;24.48;10.88;;;16.70;99.90;;;;;;5021633;28;20072;-61
2023/05/27 09:58:21;;;;;;;28.83;9.90;;;16.70;99.90;;;;;;5033338;28;20107;-61
2023/05/27 10:00:49;;;;;;;22.52;9.18;;;16.70;99.90;;;;;;5034026;28;20053;-61
2023/05/27 10:03:17;;;;;;;22.77;8.82;;;16.90;99.90;;;;;;5035530;28;20053;-61
2023/05/27 10:05:49;;;;;;;28.25;8.48;;;17.30;99.90;;;;;;5034212;28;20198;-61
2023/05/27 10:08:17;;;;;;;18.70;7.43;;;17.60;99.90;;;;;;5035416;28;20073;-62
2023/05/27 10:10:52;;;;;;;26.63;10.88;;;17.80;99.90;;;;;;5036288;28;20745;-62
2023/05/27 10:13:20;;;;;;;22.90;7.07;;;18.10;99.90;;;;;;5017338;28;20477;-62
2023/05/27 10:15:51;;;;;;;19.20;7.70;;;18.40;99.90;;;;;;5017318;28;20052;-61
2023/05/27 10:18:27;;;;;;;20.58;8.30;;;18.60;99.90;;;;;;5040909;28;20547;-62
2023/05/27 10:20:54;;;;;;;23.40;10.48;;;18.80;99.90;;;;;;5034093;28;20350;-62
2023/05/27 10:23:25;;;;;;;27.95;9.05;;;19.00;99.90;;;;;;5023073;28;20304;-62
2023/05/27 10:25:55;;;;;;;25.85;9.20;;;18.90;99.90;;;;;;5037007;28;20766;-61
2023/05/27 10:28:40;;;;;;;22.42;9.07;;;19.10;99.90;;;;;;5032211;28;20438;-62
2023/05/27 10:31:11;;;;;;;20.13;7.20;;;19.30;99.90;;;;;;5037488;28;20080;-62
2023/05/27 10:33:40;;;;;;;24.80;8.68;;;19.60;99.90;;;;;;5039773;28;20045;-62
2023/05/27 10:36:14;;;;;;;17.50;7.53;;;19.80;99.90;;;;;;5039098;28;20183;-62
2023/05/27 10:38:41;;;;;;;17.10;7.93;;;19.90;99.90;;;;;;5030517;28;20037;-61
2023/05/27 10:41:08;;;;;;;23.05;8.77;;;19.80;99.90;;;;;;5038020;28;20053;-62
2023/05/27 10:43:35;;;;;;;20.63;7.18;;;19.70;99.00;;;;;;5010464;28;21261;-62
2023/05/27 10:46:09;;;;;;;17.98;6.63;;;19.80;99.90;;;;;;5031162;28;20057;-62
2023/05/27 10:48:38;;;;;;;16.05;5.78;;;19.80;99.50;;;;;;5039435;28;20053;-61
2023/05/27 10:51:06;;;;;;;17.10;6.40;;;19.60;98.80;;;;;;5017788;28;20092;-61
2023/05/27 10:53:35;;;;;;;18.15;5.90;;;19.30;99.30;;;;;;5033994;28;20513;-60
2023/05/27 10:56:02;;;;;;;25.08;6.22;;;19.00;99.30;;;;;;5036659;28;20051;-62
2023/05/27 10:58:29;;;;;;;22.80;6.25;;;18.90;99.80;;;;;;5037037;28;20060;-61
2023/05/27 11:00:56;;;;;;;24.45;5.93;;;18.80;99.60;;;;;;5034821;28;20079;-61
2023/05/27 11:03:25;;;;;;;20.08;6.00;;;18.80;99.60;;;;;;5033961;28;20057;-61
2023/05/27 11:06:05;;;;;;;17.02;7.00;;;18.80;99.50;;;;;;5014507;28;20044;-61
2023/05/27 11:08:32;;;;;;;19.30;6.25;;;18.60;98.80;;;;;;5030262;28;20053;-61
2023/05/27 11:11:05;;;;;;;21.30;5.78;;;18.50;99.30;;;;;;5019410;28;20106;-61
2023/05/27 11:13:45;;;;;;;18.42;6.50;;;18.50;98.40;;;;;;5012208;28;20420;-62
2023/05/27 11:16:14;;;;;;;24.92;6.88;;;18.30;99.30;;;;;;5036352;28;20048;-60
2023/05/27 11:18:48;;;;;;;16.27;5.03;;;18.40;99.90;;;;;;5041083;28;20159;-61
2023/05/27 11:21:16;;;;;;;25.45;6.13;;;18.50;99.90;;;;;;5036587;28;20078;-59
2023/05/27 11:23:43;;;;;;;22.50;6.88;;;18.50;99.90;;;;;;5035750;28;20784;-61
2023/05/27 11:26:13;;;;;;;18.38;5.70;;;18.40;99.90;;;;;;5037943;28;20064;-60
2023/05/27 11:28:47;;;;;;;15.15;5.10;;;18.50;99.90;;;;;;5014929;28;20095;-61
2023/05/27 11:31:15;;;;;;;22.95;6.45;;;18.40;99.90;;;;;;5032094;28;20087;-60
2023/05/27 11:33:43;;;;;;;21.20;5.57;;;18.50;99.90;;;;;;5033874;28;20060;-60
2023/05/27 11:36:14;;;;;;;18.55;5.13;;;18.50;99.90;;;;;;5031721;28;20850;-60
2023/05/27 11:39:00;;;;;;;26.05;5.85;;;18.50;99.90;;;;;;5031968;28;20073;-60
2023/05/27 11:41:29;;;;;;;20.75;6.07;;;18.60;99.40;;;;;;5028929;28;20160;-60
2023/05/27 11:43:57;;;;;;;19.42;6.80;;;18.60;99.90;;;;;;5031880;28;20145;-60
2023/05/27 11:46:33;;;;;;;22.30;5.93;;;18.70;99.90;;;;;;5034222;28;20049;-60
2023/05/27 11:48:59;;;;;;;20.50;6.40;;;18.70;99.60;;;;;;5034820;28;20142;-60
2023/05/27 11:51:28;;;;;;;11.82;4.28;;;18.70;99.80;;;;;;5037813;28;20503;-61
2023/05/27 11:53:55;;;;;;;21.05;6.35;;;18.70;99.70;;;;;;5033638;28;20131;-60
2023/05/27 11:56:24;;;;;;;19.10;5.47;;;18.70;99.90;;;;;;5029028;28;20547;-60
2023/05/27 11:58:50;;;;;;;24.60;6.50;;;18.60;99.60;;;;;;5031774;28;20045;-60
2023/05/27 12:01:17;;;;;;;15.85;5.25;;;18.60;99.90;;;;;;5034831;28;20049;-61
2023/05/27 12:03:45;;;;;;;24.48;6.47;;;18.60;99.30;;;;;;5034708;28;20094;-60
2023/05/27 12:06:12;;;;;;;18.50;4.65;;;18.70;99.50;;;;;;5038910;28;20044;-60
2023/05/27 12:08:41;;;;;;;21.70;5.30;;;18.80;99.50;;;;;;5027895;28;20104;-60
2023/05/27 12:11:07;;;;;;;17.70;4.57;;;18.80;99.30;;;;;;5040763;28;20045;-61
2023/05/27 12:13:34;;;;;;;18.55;4.63;;;18.90;99.50;;;;;;5010235;28;20496;-60
2023/05/27 12:16:03;;;;;;;22.70;5.70;;;19.00;99.20;;;;;;5038150;28;20127;-61
2023/05/27 12:18:30;;;;;;;27.88;5.13;;;19.10;99.30;;;;;;5029826;28;20056;-61
2023/05/27 12:20:56;;;;;;;19.42;4.47;;;19.20;99.10;;;;;;5036170;28;20052;-60
2023/05/27 12:23:23;;;;;;;16.90;5.05;;;19.20;99.00;;;;;;5031052;28;20111;-60
2023/05/27 12:25:50;;;;;;;23.08;5.03;;;19.20;98.80;;;;;;5039830;28;20056;-61
2023/05/27 12:28:17;;;;;;;21.92;5.30;;;19.00;98.90;;;;;;5036941;28;20141;-61
2023/05/27 12:30:46;;;;;;;16.67;5.55;;;19.20;98.60;;;;;;5036340;28;20053;-61
2023/05/27 12:33:13;;;;;;;15.68;5.07;;;19.30;98.70;;;;;;5039151;28;20080;-61
2023/05/27 12:35:40;;;;;;;19.50;6.10;;;19.20;98.10;;;;;;5038404;28;20068;-60
2023/05/27 12:38:07;;;;;;;22.45;4.53;;;19.30;98.50;;;;;;5035699;28;20149;-60